ボードー の空港の天気 - METARとTAF

Bodo Vi ( ENBO / BOO ) - ノルウェー ヌールラン県ボードー
飛行場実況気象(Metar)
観測時間05/25 12:20 CEST (05/25 10:20 UTC)
風向・風速南西 8m/s
視程10km以上
天気現象弱い雨
少しの雲 雲底高度 240m
全天の8割程度の雲 雲底高度 610m
気温8℃
湿度93%
気圧1010hPa
METARENBO 251020Z 23016KT 9999 -RA FEW008 BKN020 08/07 Q1010 TEMPO BKN014
過去の天気等 Google飛行場航空写真 Wunderground天気予報

過去48時間のMETAR

飛行場予報(TAF)
発表時間: -
25日8時 CEST ~ 25日16時 CEST に一時的に
風向・風速西南西 13m/s
視程3,000m
天気現象霧雨雨 もや
全天の4割程度の雲 雲底高度 120m
全天の8割程度の雲 雲底高度 240m
25日14時 CEST ~ 25日16時 CEST に徐々に
風向・風速北北西 4m/s
TAF ENBO 2506/2606 24012KT 9999 -RA SCT015 BKN025
TEMPO 2506/2514 24025KT 3000 DZRA BR SCT004 BKN008
BECMG 2512/2514 34008KT